sensor_id;sensor_type;location;lat;lon;timestamp;temperature;humidity
33955;DHT22;20233;50.804;7.126;2023-01-29T00:01:11;-1.40;99.90
33955;DHT22;20233;50.804;7.126;2023-01-29T00:03:36;-1.40;99.90
33955;DHT22;20233;50.804;7.126;2023-01-29T00:06:07;-1.50;99.90
33955;DHT22;20233;50.804;7.126;2023-01-29T00:08:34;-1.50;99.90
33955;DHT22;20233;50.804;7.126;2023-01-29T00:11:01;-1.50;99.90
33955;DHT22;20233;50.804;7.126;2023-01-29T00:13:27;-1.50;99.90
33955;DHT22;20233;50.804;7.126;2023-01-29T00:15:54;-1.50;99.90
33955;DHT22;20233;50.804;7.126;2023-01-29T00:18:20;-1.50;99.90
33955;DHT22;20233;50.804;7.126;2023-01-29T00:20:45;-1.50;99.90
33955;DHT22;20233;50.804;7.126;2023-01-29T00:23:11;-1.60;99.90
33955;DHT22;20233;50.804;7.126;2023-01-29T00:25:36;-1.60;99.90
33955;DHT22;20233;50.804;7.126;2023-01-29T00:28:02;-1.60;99.90
33955;DHT22;20233;50.804;7.126;2023-01-29T00:30:27;-1.60;99.90
33955;DHT22;20233;50.804;7.126;2023-01-29T00:32:53;-1.60;99.90
33955;DHT22;20233;50.804;7.126;2023-01-29T00:35:19;-1.60;99.90
33955;DHT22;20233;50.804;7.126;2023-01-29T00:37:44;-1.60;99.90
33955;DHT22;20233;50.804;7.126;2023-01-29T00:40:10;-1.60;99.90
33955;DHT22;20233;50.804;7.126;2023-01-29T00:42:36;-1.60;99.90
33955;DHT22;20233;50.804;7.126;2023-01-29T00:45:20;-1.60;99.90
33955;DHT22;20233;50.804;7.126;2023-01-29T00:47:46;-1.70;99.90
33955;DHT22;20233;50.804;7.126;2023-01-29T00:50:12;-1.70;99.90
33955;DHT22;20233;50.804;7.126;2023-01-29T00:52:38;-1.60;99.90
33955;DHT22;20233;50.804;7.126;2023-01-29T00:55:07;-1.60;99.90
33955;DHT22;20233;50.804;7.126;2023-01-29T00:57:35;-1.70;99.90
33955;DHT22;20233;50.804;7.126;2023-01-29T01:00:02;-1.70;99.90
33955;DHT22;20233;50.804;7.126;2023-01-29T01:02:28;-1.80;99.90
33955;DHT22;20233;50.804;7.126;2023-01-29T01:05:17;-1.80;99.90
33955;DHT22;20233;50.804;7.126;2023-01-29T01:07:47;-1.80;99.90
33955;DHT22;20233;50.804;7.126;2023-01-29T01:10:16;-1.80;99.90
33955;DHT22;20233;50.804;7.126;2023-01-29T01:12:46;-1.70;99.90
33955;DHT22;20233;50.804;7.126;2023-01-29T01:15:11;-1.80;99.90
33955;DHT22;20233;50.804;7.126;2023-01-29T01:17:37;-1.90;99.90
33955;DHT22;20233;50.804;7.126;2023-01-29T01:20:03;-1.90;99.90
33955;DHT22;20233;50.804;7.126;2023-01-29T01:22:29;-1.90;99.90
33955;DHT22;20233;50.804;7.126;2023-01-29T01:24:56;-1.90;99.90
33955;DHT22;20233;50.804;7.126;2023-01-29T01:27:22;-1.90;99.90
33955;DHT22;20233;50.804;7.126;2023-01-29T01:29:48;-2.20;99.90
33955;DHT22;20233;50.804;7.126;2023-01-29T01:32:13;-2.30;99.90
33955;DHT22;20233;50.804;7.126;2023-01-29T01:34:46;-2.10;99.90
33955;DHT22;20233;50.804;7.126;2023-01-29T01:37:11;-2.10;99.90
33955;DHT22;20233;50.804;7.126;2023-01-29T01:39:36;-2.10;99.90
33955;DHT22;20233;50.804;7.126;2023-01-29T01:42:02;-2.00;99.90
33955;DHT22;20233;50.804;7.126;2023-01-29T01:47:16;-2.00;99.90
33955;DHT22;20233;50.804;7.126;2023-01-29T01:49:45;-2.00;99.90
33955;DHT22;20233;50.804;7.126;2023-01-29T01:52:12;-2.10;99.90
33955;DHT22;20233;50.804;7.126;2023-01-29T01:54:40;-2.00;99.90
33955;DHT22;20233;50.804;7.126;2023-01-29T01:57:11;-2.10;99.90
33955;DHT22;20233;50.804;7.126;2023-01-29T01:59:42;-2.00;99.90
33955;DHT22;20233;50.804;7.126;2023-01-29T02:02:12;-2.00;99.90
33955;DHT22;20233;50.804;7.126;2023-01-29T02:04:57;-2.10;99.90
33955;DHT22;20233;50.804;7.126;2023-01-29T02:07:46;-2.10;99.90
33955;DHT22;20233;50.804;7.126;2023-01-29T02:10:45;-2.10;99.90
33955;DHT22;20233;50.804;7.126;2023-01-29T02:13:11;-2.10;99.90
33955;DHT22;20233;50.804;7.126;2023-01-29T02:15:40;-2.10;99.90
33955;DHT22;20233;50.804;7.126;2023-01-29T02:18:06;-2.10;99.90
33955;DHT22;20233;50.804;7.126;2023-01-29T02:20:33;-2.10;99.90
33955;DHT22;20233;50.804;7.126;2023-01-29T02:23:32;-2.10;99.90
33955;DHT22;20233;50.804;7.126;2023-01-29T02:29:30;-2.10;99.90
33955;DHT22;20233;50.804;7.126;2023-01-29T02:32:12;-2.20;99.90
33955;DHT22;20233;50.804;7.126;2023-01-29T02:34:57;-2.20;99.90
33955;DHT22;20233;50.804;7.126;2023-01-29T02:38:06;-2.20;99.90
33955;DHT22;20233;50.804;7.126;2023-01-29T02:43:27;-2.30;99.90
33955;DHT22;20233;50.804;7.126;2023-01-29T02:48:44;-2.20;99.90
33955;DHT22;20233;50.804;7.126;2023-01-29T02:51:28;-2.30;99.90
33955;DHT22;20233;50.804;7.126;2023-01-29T02:54:03;-2.30;99.90
33955;DHT22;20233;50.804;7.126;2023-01-29T02:56:38;-2.30;99.90
33955;DHT22;20233;50.804;7.126;2023-01-29T02:59:07;-2.30;99.90
33955;DHT22;20233;50.804;7.126;2023-01-29T03:01:44;-2.30;99.90
33955;DHT22;20233;50.804;7.126;2023-01-29T03:04:15;-2.30;99.90
33955;DHT22;20233;50.804;7.126;2023-01-29T03:06:48;-2.30;99.90
33955;DHT22;20233;50.804;7.126;2023-01-29T03:09:23;-2.40;99.90
33955;DHT22;20233;50.804;7.126;2023-01-29T03:11:53;-2.50;99.90
33955;DHT22;20233;50.804;7.126;2023-01-29T03:14:24;-2.50;99.90
33955;DHT22;20233;50.804;7.126;2023-01-29T03:17:13;-2.50;99.90
33955;DHT22;20233;50.804;7.126;2023-01-29T03:19:42;-2.50;99.90
33955;DHT22;20233;50.804;7.126;2023-01-29T03:22:12;-2.50;99.90
33955;DHT22;20233;50.804;7.126;2023-01-29T03:24:50;-2.50;99.90
33955;DHT22;20233;50.804;7.126;2023-01-29T03:27:47;-2.50;99.90
33955;DHT22;20233;50.804;7.126;2023-01-29T03:30:35;-2.50;99.90
33955;DHT22;20233;50.804;7.126;2023-01-29T03:33:23;-2.40;99.90
33955;DHT22;20233;50.804;7.126;2023-01-29T03:35:58;-2.40;99.90
33955;DHT22;20233;50.804;7.126;2023-01-29T03:38:26;-2.40;99.90
33955;DHT22;20233;50.804;7.126;2023-01-29T03:41:07;-2.40;99.90
33955;DHT22;20233;50.804;7.126;2023-01-29T03:43:46;-2.40;99.90
33955;DHT22;20233;50.804;7.126;2023-01-29T03:46:27;-2.50;99.90
33955;DHT22;20233;50.804;7.126;2023-01-29T03:49:04;-2.60;99.90
33955;DHT22;20233;50.804;7.126;2023-01-29T03:52:14;-2.60;99.90
33955;DHT22;20233;50.804;7.126;2023-01-29T03:55:05;-2.60;99.90
33955;DHT22;20233;50.804;7.126;2023-01-29T03:57:59;-2.60;99.90
33955;DHT22;20233;50.804;7.126;2023-01-29T04:00:33;-2.50;99.90
33955;DHT22;20233;50.804;7.126;2023-01-29T04:05:50;-2.60;99.90
33955;DHT22;20233;50.804;7.126;2023-01-29T04:08:26;-2.50;99.90
33955;DHT22;20233;50.804;7.126;2023-01-29T04:10:55;-2.60;99.90
33955;DHT22;20233;50.804;7.126;2023-01-29T04:13:24;-2.60;99.90
33955;DHT22;20233;50.804;7.126;2023-01-29T04:15:57;-2.60;99.90
33955;DHT22;20233;50.804;7.126;2023-01-29T04:18:24;-2.60;99.90
33955;DHT22;20233;50.804;7.126;2023-01-29T04:20:50;-2.60;99.90
33955;DHT22;20233;50.804;7.126;2023-01-29T04:23:24;-2.60;99.90
33955;DHT22;20233;50.804;7.126;2023-01-29T04:31:22;-2.60;99.90
33955;DHT22;20233;50.804;7.126;2023-01-29T04:34:15;-2.60;99.90
33955;DHT22;20233;50.804;7.126;2023-01-29T04:36:58;-2.70;99.90
33955;DHT22;20233;50.804;7.126;2023-01-29T04:42:29;-2.70;99.90
33955;DHT22;20233;50.804;7.126;2023-01-29T04:45:03;-2.70;99.90
33955;DHT22;20233;50.804;7.126;2023-01-29T04:50:29;-2.70;99.90
33955;DHT22;20233;50.804;7.126;2023-01-29T04:53:12;-2.60;99.90
33955;DHT22;20233;50.804;7.126;2023-01-29T04:55:54;-2.70;99.90
33955;DHT22;20233;50.804;7.126;2023-01-29T04:58:25;-2.70;99.90
33955;DHT22;20233;50.804;7.126;2023-01-29T05:00:53;-2.70;99.90
33955;DHT22;20233;50.804;7.126;2023-01-29T05:03:22;-2.70;99.90
33955;DHT22;20233;50.804;7.126;2023-01-29T05:05:50;-2.70;99.90
33955;DHT22;20233;50.804;7.126;2023-01-29T05:08:21;-2.70;99.90
33955;DHT22;20233;50.804;7.126;2023-01-29T05:10:47;-2.70;99.90
33955;DHT22;20233;50.804;7.126;2023-01-29T05:13:14;-2.80;99.90
33955;DHT22;20233;50.804;7.126;2023-01-29T05:15:50;-2.70;99.90
33955;DHT22;20233;50.804;7.126;2023-01-29T05:18:16;-2.70;99.90
33955;DHT22;20233;50.804;7.126;2023-01-29T05:20:42;-2.80;99.90
33955;DHT22;20233;50.804;7.126;2023-01-29T05:23:14;-2.80;99.90
33955;DHT22;20233;50.804;7.126;2023-01-29T05:25:41;-2.80;99.90
33955;DHT22;20233;50.804;7.126;2023-01-29T05:28:08;-2.80;99.90
33955;DHT22;20233;50.804;7.126;2023-01-29T05:30:52;-2.80;99.90
33955;DHT22;20233;50.804;7.126;2023-01-29T05:35:48;-2.80;99.90
33955;DHT22;20233;50.804;7.126;2023-01-29T05:38:15;-2.80;99.90
33955;DHT22;20233;50.804;7.126;2023-01-29T05:40:41;-2.80;99.90
33955;DHT22;20233;50.804;7.126;2023-01-29T05:43:22;-2.80;99.90
33955;DHT22;20233;50.804;7.126;2023-01-29T05:45:53;-2.80;99.90
33955;DHT22;20233;50.804;7.126;2023-01-29T05:48:19;-2.80;99.90
33955;DHT22;20233;50.804;7.126;2023-01-29T05:50:44;-2.80;99.90
33955;DHT22;20233;50.804;7.126;2023-01-29T05:53:10;-2.80;99.90
33955;DHT22;20233;50.804;7.126;2023-01-29T05:55:35;-2.80;99.90
33955;DHT22;20233;50.804;7.126;2023-01-29T05:58:01;-2.80;99.90
33955;DHT22;20233;50.804;7.126;2023-01-29T06:00:27;-2.80;99.90
33955;DHT22;20233;50.804;7.126;2023-01-29T06:02:52;-2.80;99.90
33955;DHT22;20233;50.804;7.126;2023-01-29T06:05:18;-2.80;99.90
33955;DHT22;20233;50.804;7.126;2023-01-29T06:07:44;-2.80;99.90
33955;DHT22;20233;50.804;7.126;2023-01-29T06:10:13;-2.80;99.90
33955;DHT22;20233;50.804;7.126;2023-01-29T06:12:39;-2.80;99.90
33955;DHT22;20233;50.804;7.126;2023-01-29T06:15:05;-2.80;99.90
33955;DHT22;20233;50.804;7.126;2023-01-29T06:17:31;-2.80;99.90
33955;DHT22;20233;50.804;7.126;2023-01-29T06:19:56;-2.80;99.90
33955;DHT22;20233;50.804;7.126;2023-01-29T06:22:22;-2.80;99.90
33955;DHT22;20233;50.804;7.126;2023-01-29T06:24:47;-2.80;99.90
33955;DHT22;20233;50.804;7.126;2023-01-29T06:27:13;-2.80;99.90
33955;DHT22;20233;50.804;7.126;2023-01-29T06:29:38;-2.90;99.90
33955;DHT22;20233;50.804;7.126;2023-01-29T06:32:04;-2.90;99.90
33955;DHT22;20233;50.804;7.126;2023-01-29T06:34:30;-2.90;99.90
33955;DHT22;20233;50.804;7.126;2023-01-29T06:36:55;-2.90;99.90
33955;DHT22;20233;50.804;7.126;2023-01-29T06:39:21;-2.90;99.90
33955;DHT22;20233;50.804;7.126;2023-01-29T06:41:47;-2.90;99.90
33955;DHT22;20233;50.804;7.126;2023-01-29T06:44:12;-2.90;99.90
33955;DHT22;20233;50.804;7.126;2023-01-29T06:46:38;-2.90;99.90
33955;DHT22;20233;50.804;7.126;2023-01-29T06:49:03;-3.00;99.90
33955;DHT22;20233;50.804;7.126;2023-01-29T06:51:29;-3.00;99.90
33955;DHT22;20233;50.804;7.126;2023-01-29T06:53:54;-2.90;99.90
33955;DHT22;20233;50.804;7.126;2023-01-29T06:56:21;-3.00;99.90
33955;DHT22;20233;50.804;7.126;2023-01-29T06:58:48;-3.00;99.90
33955;DHT22;20233;50.804;7.126;2023-01-29T07:01:14;-3.00;99.90
33955;DHT22;20233;50.804;7.126;2023-01-29T07:03:39;-3.00;99.90
33955;DHT22;20233;50.804;7.126;2023-01-29T07:06:07;-3.00;99.90
33955;DHT22;20233;50.804;7.126;2023-01-29T07:08:37;-3.00;99.90
33955;DHT22;20233;50.804;7.126;2023-01-29T07:11:03;-2.90;99.90
33955;DHT22;20233;50.804;7.126;2023-01-29T07:13:29;-2.90;99.90
33955;DHT22;20233;50.804;7.126;2023-01-29T07:16:01;-2.90;99.90
33955;DHT22;20233;50.804;7.126;2023-01-29T07:18:28;-2.80;99.90
33955;DHT22;20233;50.804;7.126;2023-01-29T07:20:54;-2.70;99.90
33955;DHT22;20233;50.804;7.126;2023-01-29T07:23:20;-2.60;99.90
33955;DHT22;20233;50.804;7.126;2023-01-29T07:25:46;-2.60;99.90
33955;DHT22;20233;50.804;7.126;2023-01-29T07:28:14;-2.60;99.90
33955;DHT22;20233;50.804;7.126;2023-01-29T07:30:40;-2.50;99.90
33955;DHT22;20233;50.804;7.126;2023-01-29T07:33:07;-2.50;99.90
33955;DHT22;20233;50.804;7.126;2023-01-29T07:35:38;-2.50;99.90
33955;DHT22;20233;50.804;7.126;2023-01-29T07:38:04;-2.40;99.90
33955;DHT22;20233;50.804;7.126;2023-01-29T07:40:30;-2.40;99.90
33955;DHT22;20233;50.804;7.126;2023-01-29T07:43:04;-2.30;99.90
33955;DHT22;20233;50.804;7.126;2023-01-29T07:45:33;-2.30;99.90
33955;DHT22;20233;50.804;7.126;2023-01-29T07:47:58;-2.20;99.90
33955;DHT22;20233;50.804;7.126;2023-01-29T07:50:25;-2.20;99.90
33955;DHT22;20233;50.804;7.126;2023-01-29T07:52:55;-2.10;99.90
33955;DHT22;20233;50.804;7.126;2023-01-29T07:55:21;-2.10;99.90
33955;DHT22;20233;50.804;7.126;2023-01-29T07:57:46;-2.00;99.90
33955;DHT22;20233;50.804;7.126;2023-01-29T08:00:13;-2.00;99.90
33955;DHT22;20233;50.804;7.126;2023-01-29T08:02:40;-2.00;99.90
33955;DHT22;20233;50.804;7.126;2023-01-29T08:05:06;-1.90;99.90
33955;DHT22;20233;50.804;7.126;2023-01-29T08:07:32;-1.80;99.90
33955;DHT22;20233;50.804;7.126;2023-01-29T08:09:58;-1.70;99.90
33955;DHT22;20233;50.804;7.126;2023-01-29T08:12:23;-1.70;99.90
33955;DHT22;20233;50.804;7.126;2023-01-29T08:14:49;-1.70;99.90
33955;DHT22;20233;50.804;7.126;2023-01-29T08:17:14;-1.60;99.90
33955;DHT22;20233;50.804;7.126;2023-01-29T08:19:40;-1.60;99.90
33955;DHT22;20233;50.804;7.126;2023-01-29T08:22:05;-1.50;99.90
33955;DHT22;20233;50.804;7.126;2023-01-29T08:24:31;-1.50;99.90
33955;DHT22;20233;50.804;7.126;2023-01-29T08:26:57;-1.40;99.90
33955;DHT22;20233;50.804;7.126;2023-01-29T08:29:23;-1.40;99.90
33955;DHT22;20233;50.804;7.126;2023-01-29T08:31:48;-1.40;99.90
33955;DHT22;20233;50.804;7.126;2023-01-29T08:34:14;-1.30;99.90
33955;DHT22;20233;50.804;7.126;2023-01-29T08:36:40;-1.30;99.90
33955;DHT22;20233;50.804;7.126;2023-01-29T08:39:05;-1.20;99.90
33955;DHT22;20233;50.804;7.126;2023-01-29T08:41:31;-1.10;99.90
33955;DHT22;20233;50.804;7.126;2023-01-29T08:43:57;-1.10;99.90
33955;DHT22;20233;50.804;7.126;2023-01-29T08:46:24;-1.10;99.90
33955;DHT22;20233;50.804;7.126;2023-01-29T08:48:50;-1.00;99.90
33955;DHT22;20233;50.804;7.126;2023-01-29T08:51:15;-0.90;99.90
33955;DHT22;20233;50.804;7.126;2023-01-29T08:53:41;-0.90;99.90
33955;DHT22;20233;50.804;7.126;2023-01-29T08:56:07;-0.90;99.90
33955;DHT22;20233;50.804;7.126;2023-01-29T08:58:32;-0.80;99.90
33955;DHT22;20233;50.804;7.126;2023-01-29T09:01:05;-0.80;99.90
33955;DHT22;20233;50.804;7.126;2023-01-29T09:03:31;-0.70;99.90
33955;DHT22;20233;50.804;7.126;2023-01-29T09:05:58;-0.70;99.90
33955;DHT22;20233;50.804;7.126;2023-01-29T09:08:23;-0.60;99.90
33955;DHT22;20233;50.804;7.126;2023-01-29T09:10:49;-0.60;99.90
33955;DHT22;20233;50.804;7.126;2023-01-29T09:13:14;-0.50;99.90
33955;DHT22;20233;50.804;7.126;2023-01-29T09:15:40;-0.50;99.90
33955;DHT22;20233;50.804;7.126;2023-01-29T09:18:05;-0.50;99.90
33955;DHT22;20233;50.804;7.126;2023-01-29T09:20:31;-0.40;99.90
33955;DHT22;20233;50.804;7.126;2023-01-29T09:22:57;-0.40;99.90
33955;DHT22;20233;50.804;7.126;2023-01-29T09:25:24;-0.30;99.90
33955;DHT22;20233;50.804;7.126;2023-01-29T09:27:49;-0.30;99.90
33955;DHT22;20233;50.804;7.126;2023-01-29T09:30:15;-0.20;99.90
33955;DHT22;20233;50.804;7.126;2023-01-29T09:32:41;-0.20;99.90
33955;DHT22;20233;50.804;7.126;2023-01-29T09:35:07;-0.20;99.90
33955;DHT22;20233;50.804;7.126;2023-01-29T09:37:33;-0.10;99.90
33955;DHT22;20233;50.804;7.126;2023-01-29T09:40:01;0.00;99.90
33955;DHT22;20233;50.804;7.126;2023-01-29T09:42:43;0.00;99.90
33955;DHT22;20233;50.804;7.126;2023-01-29T09:45:24;0.00;99.90
33955;DHT22;20233;50.804;7.126;2023-01-29T09:47:51;0.20;99.90
33955;DHT22;20233;50.804;7.126;2023-01-29T09:50:25;0.20;99.90
33955;DHT22;20233;50.804;7.126;2023-01-29T09:53:00;0.30;99.90
33955;DHT22;20233;50.804;7.126;2023-01-29T09:55:35;0.30;99.90
33955;DHT22;20233;50.804;7.126;2023-01-29T10:00:50;0.40;99.90
33955;DHT22;20233;50.804;7.126;2023-01-29T10:03:47;0.50;99.90
33955;DHT22;20233;50.804;7.126;2023-01-29T10:17:47;0.60;99.90
33955;DHT22;20233;50.804;7.126;2023-01-29T10:23:14;0.70;99.90
33955;DHT22;20233;50.804;7.126;2023-01-29T10:25:42;0.80;99.90
33955;DHT22;20233;50.804;7.126;2023-01-29T10:30:50;0.80;99.90
33955;DHT22;20233;50.804;7.126;2023-01-29T10:33:39;0.90;99.90
33955;DHT22;20233;50.804;7.126;2023-01-29T10:36:12;1.00;99.90
33955;DHT22;20233;50.804;7.126;2023-01-29T10:38:44;1.10;99.90
33955;DHT22;20233;50.804;7.126;2023-01-29T10:41:13;1.20;99.90
33955;DHT22;20233;50.804;7.126;2023-01-29T10:43:57;1.20;99.90
33955;DHT22;20233;50.804;7.126;2023-01-29T10:49:07;1.50;99.90
33955;DHT22;20233;50.804;7.126;2023-01-29T10:54:58;1.50;99.90
33955;DHT22;20233;50.804;7.126;2023-01-29T11:00:37;1.60;99.90
33955;DHT22;20233;50.804;7.126;2023-01-29T11:03:24;1.60;99.90
33955;DHT22;20233;50.804;7.126;2023-01-29T11:06:15;1.60;99.90
33955;DHT22;20233;50.804;7.126;2023-01-29T11:08:44;1.60;99.90
33955;DHT22;20233;50.804;7.126;2023-01-29T11:11:16;1.70;99.90
33955;DHT22;20233;50.804;7.126;2023-01-29T11:13:59;1.60;99.90
33955;DHT22;20233;50.804;7.126;2023-01-29T11:16:29;1.70;99.90
33955;DHT22;20233;50.804;7.126;2023-01-29T11:18:59;1.70;99.90
33955;DHT22;20233;50.804;7.126;2023-01-29T11:21:27;1.60;99.90
33955;DHT22;20233;50.804;7.126;2023-01-29T11:24:10;1.70;99.90
33955;DHT22;20233;50.804;7.126;2023-01-29T11:26:39;1.70;99.90
33955;DHT22;20233;50.804;7.126;2023-01-29T11:32:23;1.80;99.90
33955;DHT22;20233;50.804;7.126;2023-01-29T11:35:19;1.80;99.90
33955;DHT22;20233;50.804;7.126;2023-01-29T11:37:45;1.90;99.90
33955;DHT22;20233;50.804;7.126;2023-01-29T11:42:42;2.00;99.90
33955;DHT22;20233;50.804;7.126;2023-01-29T11:45:28;2.10;99.90
33955;DHT22;20233;50.804;7.126;2023-01-29T11:47:57;2.20;99.90
33955;DHT22;20233;50.804;7.126;2023-01-29T11:50:25;2.30;99.90
33955;DHT22;20233;50.804;7.126;2023-01-29T11:52:52;2.40;99.90
33955;DHT22;20233;50.804;7.126;2023-01-29T11:55:20;2.30;99.90
33955;DHT22;20233;50.804;7.126;2023-01-29T11:57:53;2.40;99.90
33955;DHT22;20233;50.804;7.126;2023-01-29T12:00:30;2.30;99.90
33955;DHT22;20233;50.804;7.126;2023-01-29T12:03:05;2.50;99.90
33955;DHT22;20233;50.804;7.126;2023-01-29T12:05:32;2.50;99.90
33955;DHT22;20233;50.804;7.126;2023-01-29T12:07:59;2.60;99.90
33955;DHT22;20233;50.804;7.126;2023-01-29T12:10:34;2.70;99.90
33955;DHT22;20233;50.804;7.126;2023-01-29T12:15:39;2.70;99.90
33955;DHT22;20233;50.804;7.126;2023-01-29T12:21:00;2.90;99.90
33955;DHT22;20233;50.804;7.126;2023-01-29T12:26:10;3.10;99.90
33955;DHT22;20233;50.804;7.126;2023-01-29T12:32:25;3.10;99.90
33955;DHT22;20233;50.804;7.126;2023-01-29T12:34:26;3.00;99.90
33955;DHT22;20233;50.804;7.126;2023-01-29T12:37:20;3.10;99.90
33955;DHT22;20233;50.804;7.126;2023-01-29T12:39:47;3.20;99.90
33955;DHT22;20233;50.804;7.126;2023-01-29T12:42:19;3.10;99.90
33955;DHT22;20233;50.804;7.126;2023-01-29T12:44:55;3.20;99.90
33955;DHT22;20233;50.804;7.126;2023-01-29T12:47:30;3.20;99.90
33955;DHT22;20233;50.804;7.126;2023-01-29T12:50:05;3.20;99.90
33955;DHT22;20233;50.804;7.126;2023-01-29T12:52:41;3.20;99.90
33955;DHT22;20233;50.804;7.126;2023-01-29T12:55:28;3.20;99.90
33955;DHT22;20233;50.804;7.126;2023-01-29T12:57:59;3.10;99.90
33955;DHT22;20233;50.804;7.126;2023-01-29T13:00:32;3.20;99.90
33955;DHT22;20233;50.804;7.126;2023-01-29T13:06:07;3.40;99.90
33955;DHT22;20233;50.804;7.126;2023-01-29T13:08:44;3.50;99.90
33955;DHT22;20233;50.804;7.126;2023-01-29T13:11:15;3.60;99.90
33955;DHT22;20233;50.804;7.126;2023-01-29T13:16:21;3.70;99.90
33955;DHT22;20233;50.804;7.126;2023-01-29T13:19:02;3.80;99.90
33955;DHT22;20233;50.804;7.126;2023-01-29T13:21:35;3.70;99.90
33955;DHT22;20233;50.804;7.126;2023-01-29T13:24:04;3.80;99.90
33955;DHT22;20233;50.804;7.126;2023-01-29T13:26:34;3.80;99.90
33955;DHT22;20233;50.804;7.126;2023-01-29T13:29:00;3.90;99.90
33955;DHT22;20233;50.804;7.126;2023-01-29T13:31:29;3.80;99.90
33955;DHT22;20233;50.804;7.126;2023-01-29T13:36:45;4.00;99.90
33955;DHT22;20233;50.804;7.126;2023-01-29T13:39:32;4.00;99.90
33955;DHT22;20233;50.804;7.126;2023-01-29T13:41:59;3.90;99.90
33955;DHT22;20233;50.804;7.126;2023-01-29T13:44:36;4.00;99.90
33955;DHT22;20233;50.804;7.126;2023-01-29T13:47:04;4.10;99.90
33955;DHT22;20233;50.804;7.126;2023-01-29T13:49:41;4.00;99.90
33955;DHT22;20233;50.804;7.126;2023-01-29T13:55:08;4.00;99.90
33955;DHT22;20233;50.804;7.126;2023-01-29T14:08:39;4.00;99.90
33955;DHT22;20233;50.804;7.126;2023-01-29T14:10:44;4.10;99.90
33955;DHT22;20233;50.804;7.126;2023-01-29T14:18:34;4.10;99.90
33955;DHT22;20233;50.804;7.126;2023-01-29T14:21:16;4.00;99.90
33955;DHT22;20233;50.804;7.126;2023-01-29T14:23:48;4.00;99.90
33955;DHT22;20233;50.804;7.126;2023-01-29T14:26:26;3.90;99.90
33955;DHT22;20233;50.804;7.126;2023-01-29T14:32:29;4.00;99.90
33955;DHT22;20233;50.804;7.126;2023-01-29T14:34:34;4.00;99.90
33955;DHT22;20233;50.804;7.126;2023-01-29T14:39:54;4.00;99.90
33955;DHT22;20233;50.804;7.126;2023-01-29T14:45:37;4.00;99.90
33955;DHT22;20233;50.804;7.126;2023-01-29T14:55:56;4.10;99.90
33955;DHT22;20233;50.804;7.126;2023-01-29T15:01:04;4.00;99.90
33955;DHT22;20233;50.804;7.126;2023-01-29T15:03:44;4.00;99.90
33955;DHT22;20233;50.804;7.126;2023-01-29T15:06:17;3.90;99.90
33955;DHT22;20233;50.804;7.126;2023-01-29T15:09:11;3.90;99.90
33955;DHT22;20233;50.804;7.126;2023-01-29T15:12:03;4.00;99.90
33955;DHT22;20233;50.804;7.126;2023-01-29T15:14:36;4.00;99.90
33955;DHT22;20233;50.804;7.126;2023-01-29T15:19:43;4.00;99.90
33955;DHT22;20233;50.804;7.126;2023-01-29T15:22:13;4.00;99.90
33955;DHT22;20233;50.804;7.126;2023-01-29T15:24:40;4.00;99.90
33955;DHT22;20233;50.804;7.126;2023-01-29T15:27:16;4.00;99.90
33955;DHT22;20233;50.804;7.126;2023-01-29T15:29:46;4.00;99.90
33955;DHT22;20233;50.804;7.126;2023-01-29T15:32:25;4.00;99.90
33955;DHT22;20233;50.804;7.126;2023-01-29T15:34:54;4.00;99.90
33955;DHT22;20233;50.804;7.126;2023-01-29T15:37:34;4.00;99.90
33955;DHT22;20233;50.804;7.126;2023-01-29T15:40:00;4.00;99.90
33955;DHT22;20233;50.804;7.126;2023-01-29T15:42:42;4.00;99.90
33955;DHT22;20233;50.804;7.126;2023-01-29T15:45:41;4.00;99.90
33955;DHT22;20233;50.804;7.126;2023-01-29T15:48:13;3.90;99.90
33955;DHT22;20233;50.804;7.126;2023-01-29T15:50:41;4.00;99.90
33955;DHT22;20233;50.804;7.126;2023-01-29T15:53:14;3.90;99.90
33955;DHT22;20233;50.804;7.126;2023-01-29T15:55:42;3.90;99.90
33955;DHT22;20233;50.804;7.126;2023-01-29T15:58:14;3.90;99.90
33955;DHT22;20233;50.804;7.126;2023-01-29T16:00:48;3.90;99.90
33955;DHT22;20233;50.804;7.126;2023-01-29T16:03:15;3.90;99.90
33955;DHT22;20233;50.804;7.126;2023-01-29T16:05:40;3.90;99.90
33955;DHT22;20233;50.804;7.126;2023-01-29T16:08:09;3.80;99.90
33955;DHT22;20233;50.804;7.126;2023-01-29T16:10:37;3.80;99.90
33955;DHT22;20233;50.804;7.126;2023-01-29T16:13:05;3.80;99.90
33955;DHT22;20233;50.804;7.126;2023-01-29T16:15:38;3.70;99.90
33955;DHT22;20233;50.804;7.126;2023-01-29T16:18:23;3.70;99.90
33955;DHT22;20233;50.804;7.126;2023-01-29T16:20:53;3.70;99.90
33955;DHT22;20233;50.804;7.126;2023-01-29T16:23:23;3.60;99.90
33955;DHT22;20233;50.804;7.126;2023-01-29T16:25:51;3.60;99.90
33955;DHT22;20233;50.804;7.126;2023-01-29T16:28:18;3.50;99.90
33955;DHT22;20233;50.804;7.126;2023-01-29T16:30:44;3.50;99.90
33955;DHT22;20233;50.804;7.126;2023-01-29T16:33:14;3.50;99.90
33955;DHT22;20233;50.804;7.126;2023-01-29T16:35:41;3.50;99.90
33955;DHT22;20233;50.804;7.126;2023-01-29T16:38:23;3.40;99.90
33955;DHT22;20233;50.804;7.126;2023-01-29T16:41:12;3.40;99.90
33955;DHT22;20233;50.804;7.126;2023-01-29T16:43:56;3.30;99.90
33955;DHT22;20233;50.804;7.126;2023-01-29T16:46:31;3.30;99.90
33955;DHT22;20233;50.804;7.126;2023-01-29T16:48:59;3.30;99.90
33955;DHT22;20233;50.804;7.126;2023-01-29T16:51:51;3.30;99.90
33955;DHT22;20233;50.804;7.126;2023-01-29T16:54:20;3.30;99.90
33955;DHT22;20233;50.804;7.126;2023-01-29T16:56:51;3.30;99.90
33955;DHT22;20233;50.804;7.126;2023-01-29T16:59:35;3.30;99.90
33955;DHT22;20233;50.804;7.126;2023-01-29T17:02:02;3.30;99.90
33955;DHT22;20233;50.804;7.126;2023-01-29T17:04:28;3.20;99.90
33955;DHT22;20233;50.804;7.126;2023-01-29T17:06:57;3.20;99.90
33955;DHT22;20233;50.804;7.126;2023-01-29T17:09:31;3.20;99.90
33955;DHT22;20233;50.804;7.126;2023-01-29T17:12:00;3.20;99.90
33955;DHT22;20233;50.804;7.126;2023-01-29T17:14:29;3.20;99.90
33955;DHT22;20233;50.804;7.126;2023-01-29T17:17:01;3.20;99.90
33955;DHT22;20233;50.804;7.126;2023-01-29T17:19:27;3.30;99.90
33955;DHT22;20233;50.804;7.126;2023-01-29T17:21:57;3.30;99.90
33955;DHT22;20233;50.804;7.126;2023-01-29T17:24:24;3.20;99.90
33955;DHT22;20233;50.804;7.126;2023-01-29T17:26:50;3.20;99.90
33955;DHT22;20233;50.804;7.126;2023-01-29T17:29:22;3.10;99.90
33955;DHT22;20233;50.804;7.126;2023-01-29T17:31:48;3.10;99.90
33955;DHT22;20233;50.804;7.126;2023-01-29T17:34:15;3.10;99.90
33955;DHT22;20233;50.804;7.126;2023-01-29T17:36:41;3.10;99.90
33955;DHT22;20233;50.804;7.126;2023-01-29T17:39:22;3.10;99.90
33955;DHT22;20233;50.804;7.126;2023-01-29T17:41:56;3.10;99.90
33955;DHT22;20233;50.804;7.126;2023-01-29T17:44:22;3.20;99.90
33955;DHT22;20233;50.804;7.126;2023-01-29T17:46:50;3.20;99.90
33955;DHT22;20233;50.804;7.126;2023-01-29T17:49:26;3.10;99.90
33955;DHT22;20233;50.804;7.126;2023-01-29T17:51:53;3.10;99.90
33955;DHT22;20233;50.804;7.126;2023-01-29T17:54:20;3.10;99.90
33955;DHT22;20233;50.804;7.126;2023-01-29T17:56:46;3.10;99.90
33955;DHT22;20233;50.804;7.126;2023-01-29T17:59:17;3.10;99.90
33955;DHT22;20233;50.804;7.126;2023-01-29T18:01:43;3.10;99.90
33955;DHT22;20233;50.804;7.126;2023-01-29T18:04:09;3.10;99.90
33955;DHT22;20233;50.804;7.126;2023-01-29T18:06:35;3.10;99.90